sensor_id;sensor_type;location;lat;lon;timestamp;P1;durP1;ratioP1;P2;durP2;ratioP2
56511;SDS011;42408;53.238;5.686;2023-10-31T00:00:25;11.20;;;6.40;;
56511;SDS011;42408;53.238;5.686;2023-10-31T00:02:51;13.93;;;6.50;;
56511;SDS011;42408;53.238;5.686;2023-10-31T00:05:17;11.97;;;7.63;;
56511;SDS011;42408;53.238;5.686;2023-10-31T00:07:42;13.30;;;6.93;;
56511;SDS011;42408;53.238;5.686;2023-10-31T00:10:08;12.17;;;6.67;;
56511;SDS011;42408;53.238;5.686;2023-10-31T00:12:34;16.23;;;7.50;;
56511;SDS011;42408;53.238;5.686;2023-10-31T00:15:00;12.30;;;6.30;;
56511;SDS011;42408;53.238;5.686;2023-10-31T00:17:25;17.77;;;6.27;;
56511;SDS011;42408;53.238;5.686;2023-10-31T00:19:51;11.83;;;5.87;;
56511;SDS011;42408;53.238;5.686;2023-10-31T00:22:16;11.50;;;5.00;;
56511;SDS011;42408;53.238;5.686;2023-10-31T00:24:42;12.60;;;5.23;;
56511;SDS011;42408;53.238;5.686;2023-10-31T00:27:08;12.10;;;4.60;;
56511;SDS011;42408;53.238;5.686;2023-10-31T00:29:34;12.30;;;4.13;;
56511;SDS011;42408;53.238;5.686;2023-10-31T00:31:59;9.37;;;4.37;;
56511;SDS011;42408;53.238;5.686;2023-10-31T00:34:25;10.63;;;3.87;;
56511;SDS011;42408;53.238;5.686;2023-10-31T00:36:51;9.27;;;3.27;;
56511;SDS011;42408;53.238;5.686;2023-10-31T00:39:16;10.63;;;3.33;;
56511;SDS011;42408;53.238;5.686;2023-10-31T00:41:45;13.63;;;3.27;;
56511;SDS011;42408;53.238;5.686;2023-10-31T00:44:11;16.27;;;3.38;;
56511;SDS011;42408;53.238;5.686;2023-10-31T00:46:37;10.38;;;3.72;;
56511;SDS011;42408;53.238;5.686;2023-10-31T00:49:03;9.70;;;2.97;;
56511;SDS011;42408;53.238;5.686;2023-10-31T00:51:28;7.27;;;3.20;;
56511;SDS011;42408;53.238;5.686;2023-10-31T00:53:54;9.33;;;2.87;;
56511;SDS011;42408;53.238;5.686;2023-10-31T00:56:20;12.00;;;3.10;;
56511;SDS011;42408;53.238;5.686;2023-10-31T00:58:45;8.83;;;2.43;;
56511;SDS011;42408;53.238;5.686;2023-10-31T01:01:11;8.50;;;2.50;;
56511;SDS011;42408;53.238;5.686;2023-10-31T01:03:36;10.13;;;2.80;;
56511;SDS011;42408;53.238;5.686;2023-10-31T01:06:02;10.20;;;2.63;;
56511;SDS011;42408;53.238;5.686;2023-10-31T01:08:28;10.80;;;3.60;;
56511;SDS011;42408;53.238;5.686;2023-10-31T01:10:55;12.45;;;3.03;;
56511;SDS011;42408;53.238;5.686;2023-10-31T01:13:20;9.60;;;2.87;;
56511;SDS011;42408;53.238;5.686;2023-10-31T01:15:46;11.13;;;2.63;;
56511;SDS011;42408;53.238;5.686;2023-10-31T01:18:12;8.80;;;2.83;;
56511;SDS011;42408;53.238;5.686;2023-10-31T01:20:37;10.00;;;2.87;;
56511;SDS011;42408;53.238;5.686;2023-10-31T01:23:03;8.07;;;2.73;;
56511;SDS011;42408;53.238;5.686;2023-10-31T01:25:29;6.87;;;2.57;;
56511;SDS011;42408;53.238;5.686;2023-10-31T01:27:54;11.00;;;3.03;;
56511;SDS011;42408;53.238;5.686;2023-10-31T01:30:20;13.17;;;3.10;;
56511;SDS011;42408;53.238;5.686;2023-10-31T01:32:46;14.67;;;3.80;;
56511;SDS011;42408;53.238;5.686;2023-10-31T01:35:11;8.80;;;3.30;;
56511;SDS011;42408;53.238;5.686;2023-10-31T01:37:37;10.13;;;3.50;;
56511;SDS011;42408;53.238;5.686;2023-10-31T01:40:03;6.70;;;2.97;;
56511;SDS011;42408;53.238;5.686;2023-10-31T01:42:29;10.82;;;2.95;;
56511;SDS011;42408;53.238;5.686;2023-10-31T01:44:55;12.27;;;3.13;;
56511;SDS011;42408;53.238;5.686;2023-10-31T01:47:21;8.37;;;2.90;;
56511;SDS011;42408;53.238;5.686;2023-10-31T01:49:48;7.45;;;2.53;;
56511;SDS011;42408;53.238;5.686;2023-10-31T01:54:41;14.18;;;3.08;;
56511;SDS011;42408;53.238;5.686;2023-10-31T01:57:07;10.00;;;2.63;;
56511;SDS011;42408;53.238;5.686;2023-10-31T01:59:33;9.03;;;2.40;;
56511;SDS011;42408;53.238;5.686;2023-10-31T02:01:58;11.03;;;2.77;;
56511;SDS011;42408;53.238;5.686;2023-10-31T02:04:26;11.63;;;2.92;;
56511;SDS011;42408;53.238;5.686;2023-10-31T02:06:51;12.20;;;3.50;;
56511;SDS011;42408;53.238;5.686;2023-10-31T02:09:17;14.37;;;3.53;;
56511;SDS011;42408;53.238;5.686;2023-10-31T02:11:43;15.17;;;3.43;;
56511;SDS011;42408;53.238;5.686;2023-10-31T02:14:08;13.67;;;3.67;;
56511;SDS011;42408;53.238;5.686;2023-10-31T02:16:34;13.00;;;4.27;;
56511;SDS011;42408;53.238;5.686;2023-10-31T02:19:00;12.27;;;3.40;;
56511;SDS011;42408;53.238;5.686;2023-10-31T02:21:25;11.00;;;3.23;;
56511;SDS011;42408;53.238;5.686;2023-10-31T02:23:57;11.98;;;3.30;;
56511;SDS011;42408;53.238;5.686;2023-10-31T02:26:28;8.25;;;3.00;;
56511;SDS011;42408;53.238;5.686;2023-10-31T02:28:55;10.25;;;3.30;;
56511;SDS011;42408;53.238;5.686;2023-10-31T02:31:20;13.70;;;3.30;;
56511;SDS011;42408;53.238;5.686;2023-10-31T02:33:46;7.40;;;2.83;;
56511;SDS011;42408;53.238;5.686;2023-10-31T02:36:12;11.93;;;3.33;;
56511;SDS011;42408;53.238;5.686;2023-10-31T02:38:37;13.43;;;3.50;;
56511;SDS011;42408;53.238;5.686;2023-10-31T02:41:04;13.60;;;3.80;;
56511;SDS011;42408;53.238;5.686;2023-10-31T02:43:29;9.87;;;3.63;;
56511;SDS011;42408;53.238;5.686;2023-10-31T02:45:55;9.30;;;3.80;;
56511;SDS011;42408;53.238;5.686;2023-10-31T02:48:21;11.50;;;3.67;;
56511;SDS011;42408;53.238;5.686;2023-10-31T02:50:46;10.43;;;3.57;;
56511;SDS011;42408;53.238;5.686;2023-10-31T02:53:12;14.87;;;3.40;;
56511;SDS011;42408;53.238;5.686;2023-10-31T02:55:37;10.77;;;3.80;;
56511;SDS011;42408;53.238;5.686;2023-10-31T02:58:03;11.47;;;2.90;;
56511;SDS011;42408;53.238;5.686;2023-10-31T03:00:28;13.57;;;3.33;;
56511;SDS011;42408;53.238;5.686;2023-10-31T03:02:54;10.43;;;2.97;;
56511;SDS011;42408;53.238;5.686;2023-10-31T03:05:20;11.60;;;3.57;;
56511;SDS011;42408;53.238;5.686;2023-10-31T03:07:46;11.23;;;3.37;;
56511;SDS011;42408;53.238;5.686;2023-10-31T03:10:11;9.73;;;2.77;;
56511;SDS011;42408;53.238;5.686;2023-10-31T03:12:37;7.33;;;2.70;;
56511;SDS011;42408;53.238;5.686;2023-10-31T03:15:03;6.33;;;2.27;;
56511;SDS011;42408;53.238;5.686;2023-10-31T03:17:29;11.82;;;3.08;;
56511;SDS011;42408;53.238;5.686;2023-10-31T03:19:55;7.63;;;2.90;;
56511;SDS011;42408;53.238;5.686;2023-10-31T03:22:20;8.70;;;3.27;;
56511;SDS011;42408;53.238;5.686;2023-10-31T03:24:46;11.00;;;2.53;;
56511;SDS011;42408;53.238;5.686;2023-10-31T03:27:12;8.37;;;2.90;;
56511;SDS011;42408;53.238;5.686;2023-10-31T03:29:37;6.57;;;2.07;;
56511;SDS011;42408;53.238;5.686;2023-10-31T03:32:03;5.30;;;1.70;;
56511;SDS011;42408;53.238;5.686;2023-10-31T03:34:30;4.35;;;1.42;;
56511;SDS011;42408;53.238;5.686;2023-10-31T03:36:56;6.93;;;1.67;;
56511;SDS011;42408;53.238;5.686;2023-10-31T03:39:21;7.93;;;1.80;;
56511;SDS011;42408;53.238;5.686;2023-10-31T03:41:47;6.13;;;1.43;;
56511;SDS011;42408;53.238;5.686;2023-10-31T03:44:12;8.63;;;1.93;;
56511;SDS011;42408;53.238;5.686;2023-10-31T03:46:38;4.63;;;1.60;;
56511;SDS011;42408;53.238;5.686;2023-10-31T03:49:04;7.07;;;1.83;;
56511;SDS011;42408;53.238;5.686;2023-10-31T03:51:32;4.47;;;1.60;;
56511;SDS011;42408;53.238;5.686;2023-10-31T03:53:59;8.40;;;2.13;;
56511;SDS011;42408;53.238;5.686;2023-10-31T03:56:24;8.83;;;2.20;;
56511;SDS011;42408;53.238;5.686;2023-10-31T03:58:50;7.93;;;2.20;;
56511;SDS011;42408;53.238;5.686;2023-10-31T04:01:15;7.17;;;2.33;;
56511;SDS011;42408;53.238;5.686;2023-10-31T04:03:41;7.00;;;2.50;;
56511;SDS011;42408;53.238;5.686;2023-10-31T04:06:07;7.45;;;2.17;;
56511;SDS011;42408;53.238;5.686;2023-10-31T04:08:33;4.30;;;1.43;;
56511;SDS011;42408;53.238;5.686;2023-10-31T04:10:59;5.27;;;1.57;;
56511;SDS011;42408;53.238;5.686;2023-10-31T04:13:24;5.90;;;1.70;;
56511;SDS011;42408;53.238;5.686;2023-10-31T04:15:50;7.93;;;1.53;;
56511;SDS011;42408;53.238;5.686;2023-10-31T04:18:16;6.00;;;2.10;;
56511;SDS011;42408;53.238;5.686;2023-10-31T04:20:42;5.33;;;1.60;;
56511;SDS011;42408;53.238;5.686;2023-10-31T04:23:07;2.63;;;1.17;;
56511;SDS011;42408;53.238;5.686;2023-10-31T04:25:33;5.67;;;1.37;;
56511;SDS011;42408;53.238;5.686;2023-10-31T04:27:59;3.93;;;1.40;;
56511;SDS011;42408;53.238;5.686;2023-10-31T04:30:25;8.38;;;1.95;;
56511;SDS011;42408;53.238;5.686;2023-10-31T04:32:51;5.18;;;2.00;;
56511;SDS011;42408;53.238;5.686;2023-10-31T04:35:17;7.40;;;1.70;;
56511;SDS011;42408;53.238;5.686;2023-10-31T04:37:43;11.05;;;2.00;;
56511;SDS011;42408;53.238;5.686;2023-10-31T04:40:09;6.97;;;2.43;;
56511;SDS011;42408;53.238;5.686;2023-10-31T04:42:35;8.27;;;1.70;;
56511;SDS011;42408;53.238;5.686;2023-10-31T04:45:01;7.17;;;2.57;;
56511;SDS011;42408;53.238;5.686;2023-10-31T04:47:26;7.60;;;2.37;;
56511;SDS011;42408;53.238;5.686;2023-10-31T04:49:52;7.80;;;2.20;;
56511;SDS011;42408;53.238;5.686;2023-10-31T04:52:17;9.23;;;2.33;;
56511;SDS011;42408;53.238;5.686;2023-10-31T04:54:44;6.05;;;1.75;;
56511;SDS011;42408;53.238;5.686;2023-10-31T04:57:10;8.60;;;1.97;;
56511;SDS011;42408;53.238;5.686;2023-10-31T04:59:36;11.47;;;2.00;;
56511;SDS011;42408;53.238;5.686;2023-10-31T05:02:02;11.07;;;2.00;;
56511;SDS011;42408;53.238;5.686;2023-10-31T05:04:28;7.40;;;2.00;;
56511;SDS011;42408;53.238;5.686;2023-10-31T05:06:54;9.40;;;2.63;;
56511;SDS011;42408;53.238;5.686;2023-10-31T05:09:19;7.00;;;1.77;;
56511;SDS011;42408;53.238;5.686;2023-10-31T05:11:45;5.27;;;1.87;;
56511;SDS011;42408;53.238;5.686;2023-10-31T05:14:11;7.73;;;1.90;;
56511;SDS011;42408;53.238;5.686;2023-10-31T05:16:40;8.13;;;2.50;;
56511;SDS011;42408;53.238;5.686;2023-10-31T05:19:07;8.98;;;1.98;;
56511;SDS011;42408;53.238;5.686;2023-10-31T05:21:32;9.73;;;2.33;;
56511;SDS011;42408;53.238;5.686;2023-10-31T05:23:58;8.63;;;1.97;;
56511;SDS011;42408;53.238;5.686;2023-10-31T05:26:23;4.13;;;1.90;;
56511;SDS011;42408;53.238;5.686;2023-10-31T05:28:49;8.57;;;2.47;;
56511;SDS011;42408;53.238;5.686;2023-10-31T05:31:15;9.50;;;2.10;;
56511;SDS011;42408;53.238;5.686;2023-10-31T05:33:42;6.10;;;1.70;;
56511;SDS011;42408;53.238;5.686;2023-10-31T05:36:17;9.13;;;2.27;;
56511;SDS011;42408;53.238;5.686;2023-10-31T05:38:47;7.82;;;2.17;;
56511;SDS011;42408;53.238;5.686;2023-10-31T05:41:13;10.93;;;2.00;;
56511;SDS011;42408;53.238;5.686;2023-10-31T05:43:39;5.45;;;1.88;;
56511;SDS011;42408;53.238;5.686;2023-10-31T05:46:05;7.67;;;2.87;;
56511;SDS011;42408;53.238;5.686;2023-10-31T05:48:33;8.47;;;2.47;;
56511;SDS011;42408;53.238;5.686;2023-10-31T05:50:59;5.38;;;2.40;;
56511;SDS011;42408;53.238;5.686;2023-10-31T05:53:25;6.40;;;2.07;;
56511;SDS011;42408;53.238;5.686;2023-10-31T05:55:50;9.03;;;1.90;;
56511;SDS011;42408;53.238;5.686;2023-10-31T05:58:16;8.90;;;2.70;;
56511;SDS011;42408;53.238;5.686;2023-10-31T06:00:41;8.50;;;2.37;;
56511;SDS011;42408;53.238;5.686;2023-10-31T06:03:07;6.60;;;1.90;;
56511;SDS011;42408;53.238;5.686;2023-10-31T06:08:00;10.20;;;1.90;;
56511;SDS011;42408;53.238;5.686;2023-10-31T06:10:25;4.03;;;1.53;;
56511;SDS011;42408;53.238;5.686;2023-10-31T06:12:51;6.97;;;1.80;;
56511;SDS011;42408;53.238;5.686;2023-10-31T06:15:17;6.97;;;1.97;;
56511;SDS011;42408;53.238;5.686;2023-10-31T06:17:42;6.97;;;1.93;;
56511;SDS011;42408;53.238;5.686;2023-10-31T06:20:08;7.30;;;1.40;;
56511;SDS011;42408;53.238;5.686;2023-10-31T06:22:34;5.25;;;1.40;;
56511;SDS011;42408;53.238;5.686;2023-10-31T06:25:00;4.87;;;1.63;;
56511;SDS011;42408;53.238;5.686;2023-10-31T06:27:26;5.45;;;1.25;;
56511;SDS011;42408;53.238;5.686;2023-10-31T06:29:52;6.67;;;1.57;;
56511;SDS011;42408;53.238;5.686;2023-10-31T06:32:18;4.05;;;1.13;;
56511;SDS011;42408;53.238;5.686;2023-10-31T06:34:43;3.10;;;1.10;;
56511;SDS011;42408;53.238;5.686;2023-10-31T06:37:10;5.43;;;1.00;;
56511;SDS011;42408;53.238;5.686;2023-10-31T06:39:35;5.03;;;1.25;;
56511;SDS011;42408;53.238;5.686;2023-10-31T06:42:01;3.70;;;0.90;;
56511;SDS011;42408;53.238;5.686;2023-10-31T06:44:26;7.53;;;2.50;;
56511;SDS011;42408;53.238;5.686;2023-10-31T06:46:52;5.43;;;1.53;;
56511;SDS011;42408;53.238;5.686;2023-10-31T06:49:18;4.93;;;1.00;;
56511;SDS011;42408;53.238;5.686;2023-10-31T06:51:44;3.60;;;1.02;;
56511;SDS011;42408;53.238;5.686;2023-10-31T06:54:10;1.30;;;0.60;;
56511;SDS011;42408;53.238;5.686;2023-10-31T06:56:35;4.27;;;1.10;;
56511;SDS011;42408;53.238;5.686;2023-10-31T06:59:01;1.50;;;0.80;;
56511;SDS011;42408;53.238;5.686;2023-10-31T07:01:27;2.90;;;0.80;;
56511;SDS011;42408;53.238;5.686;2023-10-31T07:03:52;4.67;;;1.17;;
56511;SDS011;42408;53.238;5.686;2023-10-31T07:06:18;3.23;;;1.07;;
56511;SDS011;42408;53.238;5.686;2023-10-31T07:08:44;2.57;;;0.90;;
56511;SDS011;42408;53.238;5.686;2023-10-31T07:11:09;2.33;;;0.97;;
56511;SDS011;42408;53.238;5.686;2023-10-31T07:13:35;2.60;;;0.90;;
56511;SDS011;42408;53.238;5.686;2023-10-31T07:16:01;3.73;;;1.03;;
56511;SDS011;42408;53.238;5.686;2023-10-31T07:18:27;4.57;;;0.90;;
56511;SDS011;42408;53.238;5.686;2023-10-31T07:20:53;6.37;;;0.87;;
56511;SDS011;42408;53.238;5.686;2023-10-31T07:23:18;2.63;;;1.10;;
56511;SDS011;42408;53.238;5.686;2023-10-31T07:25:44;3.73;;;0.97;;
56511;SDS011;42408;53.238;5.686;2023-10-31T07:28:10;4.10;;;1.00;;
56511;SDS011;42408;53.238;5.686;2023-10-31T07:30:36;2.90;;;1.07;;
56511;SDS011;42408;53.238;5.686;2023-10-31T07:33:02;5.18;;;1.20;;
56511;SDS011;42408;53.238;5.686;2023-10-31T07:35:28;3.70;;;0.83;;
56511;SDS011;42408;53.238;5.686;2023-10-31T07:37:53;4.87;;;1.03;;
56511;SDS011;42408;53.238;5.686;2023-10-31T07:40:19;3.97;;;1.20;;
56511;SDS011;42408;53.238;5.686;2023-10-31T07:42:44;6.70;;;1.23;;
56511;SDS011;42408;53.238;5.686;2023-10-31T07:45:10;5.40;;;1.23;;
56511;SDS011;42408;53.238;5.686;2023-10-31T07:47:36;5.67;;;1.10;;
56511;SDS011;42408;53.238;5.686;2023-10-31T07:50:02;4.33;;;1.43;;
56511;SDS011;42408;53.238;5.686;2023-10-31T07:52:27;3.70;;;1.60;;
56511;SDS011;42408;53.238;5.686;2023-10-31T07:54:53;5.63;;;1.50;;
56511;SDS011;42408;53.238;5.686;2023-10-31T07:57:19;4.33;;;1.53;;
56511;SDS011;42408;53.238;5.686;2023-10-31T07:59:45;5.77;;;1.57;;
56511;SDS011;42408;53.238;5.686;2023-10-31T08:02:10;5.17;;;1.37;;
56511;SDS011;42408;53.238;5.686;2023-10-31T08:04:36;7.90;;;1.40;;
56511;SDS011;42408;53.238;5.686;2023-10-31T08:07:01;8.43;;;1.77;;
56511;SDS011;42408;53.238;5.686;2023-10-31T08:09:27;6.33;;;1.57;;
56511;SDS011;42408;53.238;5.686;2023-10-31T08:11:53;9.00;;;1.77;;
56511;SDS011;42408;53.238;5.686;2023-10-31T08:14:19;8.43;;;2.90;;
56511;SDS011;42408;53.238;5.686;2023-10-31T08:16:47;8.52;;;1.88;;
56511;SDS011;42408;53.238;5.686;2023-10-31T08:19:12;7.37;;;1.63;;
56511;SDS011;42408;53.238;5.686;2023-10-31T08:21:39;6.70;;;2.00;;
56511;SDS011;42408;53.238;5.686;2023-10-31T08:24:05;6.93;;;2.20;;
56511;SDS011;42408;53.238;5.686;2023-10-31T08:26:31;8.18;;;1.90;;
56511;SDS011;42408;53.238;5.686;2023-10-31T08:28:57;7.32;;;1.80;;
56511;SDS011;42408;53.238;5.686;2023-10-31T08:31:24;8.27;;;1.52;;
56511;SDS011;42408;53.238;5.686;2023-10-31T08:33:49;6.53;;;2.03;;
56511;SDS011;42408;53.238;5.686;2023-10-31T08:36:15;7.03;;;1.43;;
56511;SDS011;42408;53.238;5.686;2023-10-31T08:38:40;9.07;;;1.63;;
56511;SDS011;42408;53.238;5.686;2023-10-31T08:41:06;6.80;;;1.40;;
56511;SDS011;42408;53.238;5.686;2023-10-31T08:43:32;7.47;;;2.10;;
56511;SDS011;42408;53.238;5.686;2023-10-31T08:45:58;6.30;;;1.80;;
56511;SDS011;42408;53.238;5.686;2023-10-31T08:48:23;6.53;;;2.00;;
56511;SDS011;42408;53.238;5.686;2023-10-31T08:50:49;4.65;;;1.38;;
56511;SDS011;42408;53.238;5.686;2023-10-31T08:53:15;8.77;;;1.80;;
56511;SDS011;42408;53.238;5.686;2023-10-31T08:55:41;8.43;;;2.20;;
56511;SDS011;42408;53.238;5.686;2023-10-31T08:58:10;7.10;;;1.52;;
56511;SDS011;42408;53.238;5.686;2023-10-31T09:00:39;5.88;;;1.40;;
56511;SDS011;42408;53.238;5.686;2023-10-31T09:03:08;7.10;;;1.48;;
56511;SDS011;42408;53.238;5.686;2023-10-31T09:05:34;8.18;;;1.50;;
56511;SDS011;42408;53.238;5.686;2023-10-31T09:08:00;5.97;;;1.50;;
56511;SDS011;42408;53.238;5.686;2023-10-31T09:10:25;5.93;;;1.53;;
56511;SDS011;42408;53.238;5.686;2023-10-31T09:12:51;4.73;;;1.60;;
56511;SDS011;42408;53.238;5.686;2023-10-31T09:15:17;7.77;;;1.30;;
56511;SDS011;42408;53.238;5.686;2023-10-31T09:17:44;4.68;;;1.27;;
56511;SDS011;42408;53.238;5.686;2023-10-31T09:20:09;4.23;;;1.37;;
56511;SDS011;42408;53.238;5.686;2023-10-31T09:22:36;3.92;;;1.10;;
56511;SDS011;42408;53.238;5.686;2023-10-31T09:25:02;6.90;;;2.13;;
56511;SDS011;42408;53.238;5.686;2023-10-31T09:27:28;5.90;;;1.38;;
56511;SDS011;42408;53.238;5.686;2023-10-31T09:29:54;6.73;;;1.43;;
56511;SDS011;42408;53.238;5.686;2023-10-31T09:32:19;6.87;;;1.57;;
56511;SDS011;42408;53.238;5.686;2023-10-31T09:34:45;6.93;;;1.57;;
56511;SDS011;42408;53.238;5.686;2023-10-31T09:37:11;5.27;;;1.30;;
56511;SDS011;42408;53.238;5.686;2023-10-31T09:39:36;10.37;;;1.83;;
56511;SDS011;42408;53.238;5.686;2023-10-31T09:42:02;5.80;;;1.67;;
56511;SDS011;42408;53.238;5.686;2023-10-31T09:44:28;8.13;;;1.70;;
56511;SDS011;42408;53.238;5.686;2023-10-31T09:46:54;6.97;;;1.30;;
56511;SDS011;42408;53.238;5.686;2023-10-31T09:49:20;8.40;;;1.83;;
56511;SDS011;42408;53.238;5.686;2023-10-31T09:51:46;4.60;;;1.70;;
56511;SDS011;42408;53.238;5.686;2023-10-31T09:54:14;3.35;;;1.30;;
56511;SDS011;42408;53.238;5.686;2023-10-31T09:56:41;6.45;;;1.65;;
56511;SDS011;42408;53.238;5.686;2023-10-31T10:01:35;4.00;;;1.23;;
56511;SDS011;42408;53.238;5.686;2023-10-31T10:04:01;6.10;;;1.40;;
56511;SDS011;42408;53.238;5.686;2023-10-31T10:06:26;3.42;;;1.15;;
56511;SDS011;42408;53.238;5.686;2023-10-31T10:08:52;9.27;;;2.37;;
56511;SDS011;42408;53.238;5.686;2023-10-31T10:11:20;6.28;;;1.80;;
56511;SDS011;42408;53.238;5.686;2023-10-31T10:13:46;6.78;;;1.70;;
56511;SDS011;42408;53.238;5.686;2023-10-31T10:16:12;4.10;;;1.10;;
56511;SDS011;42408;53.238;5.686;2023-10-31T10:18:38;4.33;;;1.23;;
56511;SDS011;42408;53.238;5.686;2023-10-31T10:21:05;6.60;;;1.48;;
56511;SDS011;42408;53.238;5.686;2023-10-31T10:23:33;8.32;;;1.67;;
56511;SDS011;42408;53.238;5.686;2023-10-31T10:25:59;4.50;;;1.30;;
56511;SDS011;42408;53.238;5.686;2023-10-31T10:28:25;5.03;;;1.50;;
56511;SDS011;42408;53.238;5.686;2023-10-31T10:30:52;5.68;;;1.52;;
56511;SDS011;42408;53.238;5.686;2023-10-31T10:33:19;6.95;;;1.35;;
56511;SDS011;42408;53.238;5.686;2023-10-31T10:35:46;6.50;;;2.25;;
56511;SDS011;42408;53.238;5.686;2023-10-31T10:38:12;4.33;;;1.27;;
56511;SDS011;42408;53.238;5.686;2023-10-31T10:40:42;4.00;;;1.00;;
56511;SDS011;42408;53.238;5.686;2023-10-31T10:43:13;4.07;;;1.10;;
56511;SDS011;42408;53.238;5.686;2023-10-31T10:45:50;5.95;;;1.30;;
56511;SDS011;42408;53.238;5.686;2023-10-31T10:48:23;3.65;;;1.17;;
56511;SDS011;42408;53.238;5.686;2023-10-31T10:51:04;5.53;;;1.85;;
56511;SDS011;42408;53.238;5.686;2023-10-31T10:53:40;6.70;;;1.63;;
56511;SDS011;42408;53.238;5.686;2023-10-31T10:56:16;7.25;;;1.30;;
56511;SDS011;42408;53.238;5.686;2023-10-31T10:59:08;4.07;;;1.23;;
56511;SDS011;42408;53.238;5.686;2023-10-31T11:01:45;5.55;;;1.30;;
56511;SDS011;42408;53.238;5.686;2023-10-31T11:04:13;4.65;;;1.67;;
56511;SDS011;42408;53.238;5.686;2023-10-31T11:06:40;5.85;;;1.38;;
56511;SDS011;42408;53.238;5.686;2023-10-31T11:09:07;9.48;;;1.80;;
56511;SDS011;42408;53.238;5.686;2023-10-31T11:11:35;6.40;;;1.80;;
56511;SDS011;42408;53.238;5.686;2023-10-31T11:14:02;7.07;;;1.80;;
56511;SDS011;42408;53.238;5.686;2023-10-31T11:16:50;6.18;;;1.80;;
56511;SDS011;42408;53.238;5.686;2023-10-31T11:19:18;8.00;;;2.55;;
56511;SDS011;42408;53.238;5.686;2023-10-31T11:21:54;5.53;;;2.08;;
56511;SDS011;42408;53.238;5.686;2023-10-31T11:24:21;11.13;;;2.10;;
56511;SDS011;42408;53.238;5.686;2023-10-31T11:26:50;7.15;;;1.75;;
56511;SDS011;42408;53.238;5.686;2023-10-31T11:29:17;8.02;;;2.22;;
56511;SDS011;42408;53.238;5.686;2023-10-31T11:31:43;5.45;;;1.25;;
56511;SDS011;42408;53.238;5.686;2023-10-31T11:34:08;3.43;;;1.30;;
56511;SDS011;42408;53.238;5.686;2023-10-31T11:36:37;4.65;;;0.90;;
56511;SDS011;42408;53.238;5.686;2023-10-31T11:39:10;3.92;;;1.00;;
56511;SDS011;42408;53.238;5.686;2023-10-31T11:41:40;4.35;;;1.02;;
56511;SDS011;42408;53.238;5.686;2023-10-31T11:44:14;4.05;;;1.25;;
56511;SDS011;42408;53.238;5.686;2023-10-31T11:46:40;3.78;;;1.10;;
56511;SDS011;42408;53.238;5.686;2023-10-31T11:49:06;5.30;;;1.10;;
56511;SDS011;42408;53.238;5.686;2023-10-31T11:51:32;3.42;;;1.08;;
56511;SDS011;42408;53.238;5.686;2023-10-31T11:53:59;7.03;;;1.15;;
56511;SDS011;42408;53.238;5.686;2023-10-31T11:56:26;5.65;;;1.58;;
56511;SDS011;42408;53.238;5.686;2023-10-31T11:59:03;6.82;;;1.23;;
56511;SDS011;42408;53.238;5.686;2023-10-31T12:01:31;3.08;;;1.10;;
56511;SDS011;42408;53.238;5.686;2023-10-31T12:03:57;3.80;;;1.10;;
56511;SDS011;42408;53.238;5.686;2023-10-31T12:06:23;7.40;;;1.20;;
56511;SDS011;42408;53.238;5.686;2023-10-31T12:08:48;5.77;;;1.20;;
56511;SDS011;42408;53.238;5.686;2023-10-31T12:11:15;4.50;;;1.30;;
56511;SDS011;42408;53.238;5.686;2023-10-31T12:14:01;5.80;;;1.20;;
56511;SDS011;42408;53.238;5.686;2023-10-31T12:16:30;3.40;;;1.02;;
56511;SDS011;42408;53.238;5.686;2023-10-31T12:18:58;2.85;;;0.90;;
56511;SDS011;42408;53.238;5.686;2023-10-31T12:21:43;3.00;;;1.10;;
56511;SDS011;42408;53.238;5.686;2023-10-31T12:24:13;5.20;;;1.25;;
56511;SDS011;42408;53.238;5.686;2023-10-31T12:26:40;3.47;;;1.35;;
56511;SDS011;42408;53.238;5.686;2023-10-31T12:29:06;7.10;;;1.40;;
56511;SDS011;42408;53.238;5.686;2023-10-31T12:31:33;4.57;;;1.42;;
56511;SDS011;42408;53.238;5.686;2023-10-31T12:34:06;5.93;;;1.60;;
56511;SDS011;42408;53.238;5.686;2023-10-31T12:36:32;6.32;;;1.35;;
56511;SDS011;42408;53.238;5.686;2023-10-31T12:39:00;6.05;;;1.30;;
56511;SDS011;42408;53.238;5.686;2023-10-31T12:41:26;6.53;;;1.40;;
56511;SDS011;42408;53.238;5.686;2023-10-31T12:43:52;7.43;;;1.50;;
56511;SDS011;42408;53.238;5.686;2023-10-31T12:46:25;7.72;;;1.50;;
56511;SDS011;42408;53.238;5.686;2023-10-31T12:48:55;6.47;;;1.27;;
56511;SDS011;42408;53.238;5.686;2023-10-31T12:53:50;2.47;;;0.95;;
56511;SDS011;42408;53.238;5.686;2023-10-31T12:56:35;6.38;;;1.33;;
56511;SDS011;42408;53.238;5.686;2023-10-31T12:59:09;4.07;;;1.02;;
56511;SDS011;42408;53.238;5.686;2023-10-31T13:01:42;4.82;;;0.80;;
56511;SDS011;42408;53.238;5.686;2023-10-31T13:04:08;2.83;;;0.75;;
56511;SDS011;42408;53.238;5.686;2023-10-31T13:06:34;2.47;;;1.00;;
56511;SDS011;42408;53.238;5.686;2023-10-31T13:09:00;2.53;;;0.90;;
56511;SDS011;42408;53.238;5.686;2023-10-31T13:11:29;1.57;;;0.77;;
56511;SDS011;42408;53.238;5.686;2023-10-31T13:13:55;2.13;;;0.82;;
56511;SDS011;42408;53.238;5.686;2023-10-31T13:16:21;5.72;;;1.20;;
56511;SDS011;42408;53.238;5.686;2023-10-31T13:18:47;1.93;;;0.80;;
56511;SDS011;42408;53.238;5.686;2023-10-31T13:21:12;2.23;;;0.60;;
56511;SDS011;42408;53.238;5.686;2023-10-31T13:23:42;2.15;;;0.60;;
56511;SDS011;42408;53.238;5.686;2023-10-31T13:26:13;2.42;;;0.90;;
56511;SDS011;42408;53.238;5.686;2023-10-31T13:28:39;4.32;;;1.00;;
56511;SDS011;42408;53.238;5.686;2023-10-31T13:33:32;1.20;;;0.70;;
56511;SDS011;42408;53.238;5.686;2023-10-31T13:35:57;3.47;;;0.88;;
56511;SDS011;42408;53.238;5.686;2023-10-31T13:38:23;2.57;;;0.90;;
56511;SDS011;42408;53.238;5.686;2023-10-31T13:40:49;3.87;;;0.80;;
56511;SDS011;42408;53.238;5.686;2023-10-31T13:43:14;1.50;;;0.60;;
56511;SDS011;42408;53.238;5.686;2023-10-31T13:45:40;2.93;;;1.00;;
56511;SDS011;42408;53.238;5.686;2023-10-31T13:48:05;3.70;;;0.97;;
56511;SDS011;42408;53.238;5.686;2023-10-31T13:50:31;1.47;;;0.67;;
56511;SDS011;42408;53.238;5.686;2023-10-31T13:52:57;4.20;;;1.37;;
56511;SDS011;42408;53.238;5.686;2023-10-31T13:55:22;2.83;;;0.97;;
56511;SDS011;42408;53.238;5.686;2023-10-31T13:57:51;3.67;;;1.00;;
56511;SDS011;42408;53.238;5.686;2023-10-31T14:00:17;3.17;;;0.90;;
56511;SDS011;42408;53.238;5.686;2023-10-31T14:02:42;2.67;;;1.10;;
56511;SDS011;42408;53.238;5.686;2023-10-31T14:05:08;2.33;;;0.90;;
56511;SDS011;42408;53.238;5.686;2023-10-31T14:07:34;1.90;;;0.63;;
56511;SDS011;42408;53.238;5.686;2023-10-31T14:10:00;3.58;;;0.82;;
56511;SDS011;42408;53.238;5.686;2023-10-31T14:12:26;2.30;;;0.97;;
56511;SDS011;42408;53.238;5.686;2023-10-31T14:14:53;2.25;;;1.17;;
56511;SDS011;42408;53.238;5.686;2023-10-31T14:17:19;1.40;;;0.67;;
56511;SDS011;42408;53.238;5.686;2023-10-31T14:19:47;4.30;;;1.30;;
56511;SDS011;42408;53.238;5.686;2023-10-31T14:22:13;1.17;;;0.50;;
56511;SDS011;42408;53.238;5.686;2023-10-31T14:24:39;4.30;;;0.80;;
56511;SDS011;42408;53.238;5.686;2023-10-31T14:27:04;2.03;;;0.87;;
56511;SDS011;42408;53.238;5.686;2023-10-31T14:29:30;1.97;;;0.60;;
56511;SDS011;42408;53.238;5.686;2023-10-31T14:31:56;4.47;;;1.07;;
56511;SDS011;42408;53.238;5.686;2023-10-31T14:34:22;3.95;;;1.73;;
56511;SDS011;42408;53.238;5.686;2023-10-31T14:36:48;5.65;;;1.90;;
56511;SDS011;42408;53.238;5.686;2023-10-31T14:39:14;3.70;;;0.70;;
56511;SDS011;42408;53.238;5.686;2023-10-31T14:41:40;1.50;;;0.70;;
56511;SDS011;42408;53.238;5.686;2023-10-31T14:44:06;1.87;;;0.70;;
56511;SDS011;42408;53.238;5.686;2023-10-31T14:46:33;4.57;;;1.30;;
56511;SDS011;42408;53.238;5.686;2023-10-31T14:48:59;3.80;;;1.10;;
56511;SDS011;42408;53.238;5.686;2023-10-31T14:51:25;4.40;;;1.00;;
56511;SDS011;42408;53.238;5.686;2023-10-31T14:53:50;4.27;;;1.20;;